Terminal Aerodrome Forecast
Issued by NWS

Home | Current Version | Previous Version | Graphics & Text | Print | Product List | Glossary Off
Versions: 1 2 3 4 5 6 7 8 9 10 11 12 13 14 15 16

000
FTUS43 KDDC 232320
TAFHYS
TAF
KHYS 232320Z 2400/2424 19021G26KT P6SM FEW250
     FM240400 17013KT P6SM FEW250 WS020/18045KT
     FM241400 19020G29KT P6SM SCT250
     FM241800 22015KT P6SM SKC
     FM242200 22009KT P6SM FEW250=

USA.gov is the U.S. government's official web portal to all federal, state and local government web resources and services.